Time;durP1;ratioP1;P1;durP2;ratioP2;P2;SDS_P1;SDS_P2;PMS_P1;PMS_P2;Temp;Humidity;BMP_temperature;BMP_pressure;BME280_temperature;BME280_humidity;BME280_pressure;Samples;Min_cycle;Max_cycle;Signal;HPM_P1;HPM_P2
2022/09/24 00:02:13;;;;;;;22.03;19.00;;;;;;;;;;4975947;28;20574;-81
2022/09/24 00:04:40;;;;;;;21.80;19.03;;;;;;;;;;4976267;28;20289;-81
2022/09/24 00:07:07;;;;;;;21.33;19.03;;;;;;;;;;4968369;28;20703;-81
2022/09/24 00:09:35;;;;;;;22.17;18.67;;;;;;;;;;4956193;28;20267;-81
2022/09/24 00:12:03;;;;;;;23.37;19.23;;;;;;;;;;4955952;28;20243;-81
2022/09/24 00:14:30;;;;;;;21.13;18.07;;;;;;;;;;4955846;28;20246;-81
2022/09/24 00:16:58;;;;;;;22.87;18.90;;;;;;;;;;4959068;28;20230;-81
2022/09/24 00:19:25;;;;;;;22.07;18.77;;;;;;;;;;4974783;28;20261;-81
2022/09/24 00:21:52;;;;;;;26.93;19.47;;;;;;;;;;4964598;28;20282;-81
2022/09/24 00:27:01;;;;;;;21.73;19.00;;;;;;;;;;4956300;28;20195;-81
2022/09/24 00:29:31;;;;;;;22.13;19.27;;;;;;;;;;4955882;28;20678;-81
2022/09/24 00:31:58;;;;;;;22.67;18.70;;;;;;;;;;4956026;28;20209;-81
2022/09/24 00:34:26;;;;;;;24.43;20.17;;;;;;;;;;4956402;28;20294;-81
2022/09/24 00:36:53;;;;;;;22.87;19.93;;;;;;;;;;4956597;28;20242;-81
2022/09/24 00:39:21;;;;;;;23.93;19.27;;;;;;;;;;4956296;28;20227;-81
2022/09/24 00:41:48;;;;;;;23.50;18.03;;;;;;;;;;4956115;28;20297;-81
2022/09/24 00:44:34;;;;;;;21.97;18.53;;;;;;;;;;4956400;28;20207;-81
2022/09/24 00:47:02;;;;;;;24.73;19.47;;;;;;;;;;4973563;28;20301;-81
2022/09/24 00:49:30;;;;;;;23.00;19.13;;;;;;;;;;4975247;28;20194;-81
2022/09/24 00:51:57;;;;;;;24.90;19.93;;;;;;;;;;4975397;28;20298;-81
2022/09/24 00:54:27;;;;;;;24.30;18.67;;;;;;;;;;4975401;28;20237;-81
2022/09/24 00:56:54;;;;;;;24.73;19.40;;;;;;;;;;4975001;28;20206;-81
2022/09/24 00:59:23;;;;;;;22.87;18.93;;;;;;;;;;4975220;28;20655;-81
2022/09/24 01:01:51;;;;;;;23.27;18.27;;;;;;;;;;4974737;28;20300;-81
2022/09/24 01:04:21;;;;;;;21.47;17.83;;;;;;;;;;4973350;28;20285;-81
2022/09/24 01:06:48;;;;;;;28.00;18.73;;;;;;;;;;4975230;28;20202;-81
2022/09/24 01:09:15;;;;;;;23.87;18.43;;;;;;;;;;4973983;28;20317;-81
2022/09/24 01:11:48;;;;;;;24.27;18.57;;;;;;;;;;4975126;28;20234;-81
2022/09/24 01:14:26;;;;;;;22.90;18.90;;;;;;;;;;4963841;28;20235;-81
2022/09/24 01:16:57;;;;;;;23.27;18.60;;;;;;;;;;4973962;28;20206;-81
2022/09/24 01:19:37;;;;;;;23.73;18.43;;;;;;;;;;4970745;28;20270;-82
2022/09/24 01:22:07;;;;;;;23.73;18.07;;;;;;;;;;4954932;28;20655;-81
2022/09/24 01:24:48;;;;;;;24.43;18.57;;;;;;;;;;4954717;28;20298;-81
2022/09/24 01:27:18;;;;;;;23.83;18.60;;;;;;;;;;4954692;28;20286;-81
2022/09/24 01:29:52;;;;;;;24.30;18.63;;;;;;;;;;4955764;28;20218;-81
2022/09/24 01:32:23;;;;;;;24.37;19.00;;;;;;;;;;4973413;28;20207;-81
2022/09/24 01:34:51;;;;;;;26.17;19.40;;;;;;;;;;4974288;28;20298;-81
2022/09/24 01:37:19;;;;;;;23.00;18.17;;;;;;;;;;4974504;28;20249;-81
2022/09/24 01:39:47;;;;;;;24.13;18.50;;;;;;;;;;4958406;28;20219;-81
2022/09/24 01:42:15;;;;;;;25.03;18.13;;;;;;;;;;4955716;28;20241;-81
2022/09/24 01:44:43;;;;;;;25.63;18.40;;;;;;;;;;4974305;28;20245;-81
2022/09/24 01:47:13;;;;;;;24.27;17.80;;;;;;;;;;4955452;28;20309;-81
2022/09/24 01:49:41;;;;;;;25.47;18.40;;;;;;;;;;4955064;28;20545;-81
2022/09/24 01:52:10;;;;;;;22.63;17.47;;;;;;;;;;4962259;28;20252;-81
2022/09/24 01:54:40;;;;;;;23.30;17.80;;;;;;;;;;4973503;28;20357;-81
2022/09/24 01:57:10;;;;;;;23.80;17.73;;;;;;;;;;4973983;28;20289;-81
2022/09/24 01:59:39;;;;;;;24.53;17.67;;;;;;;;;;4973858;28;20733;-81
2022/09/24 02:02:08;;;;;;;24.60;17.57;;;;;;;;;;4973736;28;20217;-81
2022/09/24 02:04:40;;;;;;;20.83;16.40;;;;;;;;;;4964639;28;20203;-81
2022/09/24 02:07:12;;;;;;;21.77;16.57;;;;;;;;;;4955081;28;20226;-81
2022/09/24 02:09:40;;;;;;;23.33;17.50;;;;;;;;;;4954541;28;20785;-81
2022/09/24 02:12:10;;;;;;;20.67;16.57;;;;;;;;;;4954767;28;20298;-81
2022/09/24 02:14:39;;;;;;;22.27;16.83;;;;;;;;;;4954990;28;20290;-81
2022/09/24 02:17:07;;;;;;;22.53;16.30;;;;;;;;;;4954639;28;20286;-81
2022/09/24 02:19:36;;;;;;;21.27;16.27;;;;;;;;;;4970757;28;20603;-81
2022/09/24 02:22:05;;;;;;;22.80;16.63;;;;;;;;;;4973712;28;20747;-81
2022/09/24 02:24:35;;;;;;;22.77;17.77;;;;;;;;;;4973751;28;20749;-81
2022/09/24 02:27:02;;;;;;;23.27;17.23;;;;;;;;;;4972430;28;20285;-81
2022/09/24 02:29:29;;;;;;;22.00;16.63;;;;;;;;;;4973346;28;20285;-81
2022/09/24 02:31:58;;;;;;;21.43;16.00;;;;;;;;;;4973359;28;20974;-81
2022/09/24 02:34:28;;;;;;;23.17;17.00;;;;;;;;;;4973715;28;20675;-81
2022/09/24 02:36:57;;;;;;;21.53;16.13;;;;;;;;;;4973607;28;20233;-81
2022/09/24 02:39:26;;;;;;;22.10;16.93;;;;;;;;;;4973463;28;20721;-81
2022/09/24 02:41:53;;;;;;;21.43;15.73;;;;;;;;;;4961522;28;20230;-81
2022/09/24 02:44:21;;;;;;;21.60;16.63;;;;;;;;;;4972273;28;20226;-81
2022/09/24 02:46:49;;;;;;;20.93;16.17;;;;;;;;;;4960071;28;20293;-82
2022/09/24 02:49:17;;;;;;;23.10;16.63;;;;;;;;;;4967133;28;20290;-81
2022/09/24 02:51:44;;;;;;;22.73;16.73;;;;;;;;;;4955054;28;20207;-81
2022/09/24 02:54:12;;;;;;;20.90;16.43;;;;;;;;;;4957094;28;20749;-81
2022/09/24 02:56:41;;;;;;;20.93;17.23;;;;;;;;;;4967011;28;20286;-81
2022/09/24 02:59:08;;;;;;;22.07;16.37;;;;;;;;;;4963274;28;20228;-81
2022/09/24 03:01:36;;;;;;;22.77;16.87;;;;;;;;;;4972824;28;20242;-81
2022/09/24 03:04:04;;;;;;;22.60;16.50;;;;;;;;;;4973930;28;20234;-81
2022/09/24 03:06:31;;;;;;;21.37;16.33;;;;;;;;;;4973626;28;20354;-81
2022/09/24 03:08:59;;;;;;;21.40;16.80;;;;;;;;;;4973425;28;20272;-81
2022/09/24 03:11:31;;;;;;;21.50;16.37;;;;;;;;;;4973253;28;20202;-81
2022/09/24 03:14:00;;;;;;;22.50;16.57;;;;;;;;;;4973010;28;20218;-81
2022/09/24 03:16:27;;;;;;;19.93;16.37;;;;;;;;;;4972880;28;20747;-81
2022/09/24 03:18:55;;;;;;;21.40;16.40;;;;;;;;;;4973603;28;20334;-81
2022/09/24 03:21:22;;;;;;;22.00;17.03;;;;;;;;;;4954740;28;20207;-81
2022/09/24 03:23:49;;;;;;;21.17;16.20;;;;;;;;;;4954397;28;20246;-81
2022/09/24 03:26:17;;;;;;;24.93;17.10;;;;;;;;;;4954010;28;20214;-81
2022/09/24 03:28:44;;;;;;;23.40;16.37;;;;;;;;;;4953546;28;20218;-81
2022/09/24 03:31:12;;;;;;;25.13;16.90;;;;;;;;;;4954779;28;20237;-81
2022/09/24 03:33:41;;;;;;;24.13;17.50;;;;;;;;;;4966246;28;20198;-81
2022/09/24 03:36:10;;;;;;;20.30;16.03;;;;;;;;;;4976907;28;20206;-81
2022/09/24 03:38:37;;;;;;;25.20;16.10;;;;;;;;;;4958944;28;20308;-81
2022/09/24 03:41:05;;;;;;;20.77;15.70;;;;;;;;;;4963424;28;20285;-81
2022/09/24 03:43:32;;;;;;;18.93;15.37;;;;;;;;;;4967791;28;20239;-81
2022/09/24 03:46:00;;;;;;;19.37;15.10;;;;;;;;;;4969803;28;20207;-81
2022/09/24 03:48:29;;;;;;;20.20;14.83;;;;;;;;;;4959748;28;20246;-81
2022/09/24 03:50:57;;;;;;;21.57;15.33;;;;;;;;;;4957324;28;20207;-81
2022/09/24 03:53:24;;;;;;;22.40;15.73;;;;;;;;;;4957074;28;20210;-82
2022/09/24 03:55:54;;;;;;;19.73;15.47;;;;;;;;;;4956679;28;20285;-81
2022/09/24 03:58:21;;;;;;;19.67;14.33;;;;;;;;;;4956922;28;20290;-81
2022/09/24 04:00:48;;;;;;;20.27;15.60;;;;;;;;;;4968246;28;20321;-81
2022/09/24 04:03:15;;;;;;;19.13;14.70;;;;;;;;;;4976566;28;20305;-81
2022/09/24 04:05:44;;;;;;;20.67;14.77;;;;;;;;;;4976554;28;20233;-82
2022/09/24 04:08:11;;;;;;;21.10;15.57;;;;;;;;;;4975700;28;20305;-81
2022/09/24 04:10:38;;;;;;;18.50;14.43;;;;;;;;;;4975036;28;20293;-82
2022/09/24 04:13:06;;;;;;;22.33;15.33;;;;;;;;;;4975890;28;20278;-82
2022/09/24 04:15:33;;;;;;;22.27;15.30;;;;;;;;;;4975788;28;20234;-82
2022/09/24 04:18:00;;;;;;;22.27;16.07;;;;;;;;;;4963746;28;20213;-81
2022/09/24 04:20:29;;;;;;;19.27;14.73;;;;;;;;;;4956202;28;20737;-82
2022/09/24 04:22:59;;;;;;;21.10;15.37;;;;;;;;;;4958167;28;20210;-81
2022/09/24 04:25:29;;;;;;;20.60;14.60;;;;;;;;;;4956776;28;20262;-81
2022/09/24 04:27:57;;;;;;;19.10;14.47;;;;;;;;;;4956493;28;20213;-81
2022/09/24 04:30:25;;;;;;;18.10;14.03;;;;;;;;;;4956250;28;20238;-81
2022/09/24 04:32:52;;;;;;;18.53;13.77;;;;;;;;;;4956503;28;20634;-81
2022/09/24 04:35:20;;;;;;;20.87;14.83;;;;;;;;;;4956480;28;20297;-81
2022/09/24 04:37:47;;;;;;;20.93;14.43;;;;;;;;;;4956543;28;20290;-81
2022/09/24 04:40:17;;;;;;;18.83;14.43;;;;;;;;;;4956334;28;20322;-81
2022/09/24 04:42:45;;;;;;;19.00;13.70;;;;;;;;;;4954875;28;20294;-82
2022/09/24 04:45:12;;;;;;;19.47;14.10;;;;;;;;;;4956536;28;20199;-81
2022/09/24 04:47:40;;;;;;;19.97;14.37;;;;;;;;;;4968971;28;20776;-81
2022/09/24 04:50:08;;;;;;;18.33;13.60;;;;;;;;;;4974061;28;20580;-82
2022/09/24 04:52:35;;;;;;;19.67;13.63;;;;;;;;;;4956061;28;20285;-81
2022/09/24 04:55:03;;;;;;;17.57;13.03;;;;;;;;;;4955839;28;20643;-81
2022/09/24 04:57:33;;;;;;;18.23;13.43;;;;;;;;;;4955771;28;20203;-81
2022/09/24 05:00:01;;;;;;;17.80;13.13;;;;;;;;;;4955893;28;20227;-81
2022/09/24 05:02:28;;;;;;;17.17;13.00;;;;;;;;;;4974545;28;20280;-81
2022/09/24 05:04:55;;;;;;;17.77;13.00;;;;;;;;;;4974923;28;20210;-82
2022/09/24 05:07:22;;;;;;;17.93;12.97;;;;;;;;;;4971446;28;20250;-81
2022/09/24 05:09:50;;;;;;;17.60;13.17;;;;;;;;;;4960315;28;20718;-81
2022/09/24 05:12:19;;;;;;;18.50;12.83;;;;;;;;;;4975187;28;20230;-81
2022/09/24 05:14:48;;;;;;;18.83;13.00;;;;;;;;;;4975068;28;20198;-81
2022/09/24 05:17:15;;;;;;;17.53;11.97;;;;;;;;;;4974812;28;20210;-81
2022/09/24 05:19:42;;;;;;;19.03;12.13;;;;;;;;;;4962650;28;20223;-82
2022/09/24 05:22:09;;;;;;;20.37;13.37;;;;;;;;;;4968899;28;20721;-81
2022/09/24 05:24:36;;;;;;;18.70;12.57;;;;;;;;;;4973896;28;20285;-81
2022/09/24 05:27:09;;;;;;;20.17;13.73;;;;;;;;;;4974731;28;20234;-81
2022/09/24 05:29:37;;;;;;;19.07;13.33;;;;;;;;;;4974951;28;20208;-81
2022/09/24 05:32:06;;;;;;;18.33;13.30;;;;;;;;;;4970459;28;20199;-81
2022/09/24 05:34:33;;;;;;;17.13;13.07;;;;;;;;;;4955370;28;20258;-81
2022/09/24 05:37:01;;;;;;;16.50;12.90;;;;;;;;;;4955227;28;20310;-81
2022/09/24 05:39:28;;;;;;;18.87;13.90;;;;;;;;;;4970677;28;20309;-81
2022/09/24 05:41:56;;;;;;;20.27;13.40;;;;;;;;;;4967958;28;20753;-81
2022/09/24 05:44:23;;;;;;;17.50;12.53;;;;;;;;;;4954900;28;20254;-82
2022/09/24 05:46:51;;;;;;;17.33;13.33;;;;;;;;;;4955415;28;20210;-82
2022/09/24 05:49:19;;;;;;;21.70;13.50;;;;;;;;;;4969404;28;20249;-81
2022/09/24 05:51:48;;;;;;;18.10;13.30;;;;;;;;;;4961696;28;20203;-82
2022/09/24 05:54:16;;;;;;;17.10;12.73;;;;;;;;;;4955622;28;20309;-82
2022/09/24 05:56:43;;;;;;;17.13;13.47;;;;;;;;;;4955156;28;20246;-81
2022/09/24 05:59:10;;;;;;;16.97;13.00;;;;;;;;;;4954786;28;20261;-81
2022/09/24 06:01:38;;;;;;;15.40;12.83;;;;;;;;;;4954623;28;20316;-81
2022/09/24 06:04:05;;;;;;;16.27;12.47;;;;;;;;;;4959897;28;20209;-81
2022/09/24 06:06:34;;;;;;;16.97;13.17;;;;;;;;;;4973868;28;20293;-82
2022/09/24 06:09:01;;;;;;;16.70;12.67;;;;;;;;;;4973580;28;20333;-81
2022/09/24 06:11:33;;;;;;;18.93;12.53;;;;;;;;;;4973813;28;20245;-82
2022/09/24 06:14:01;;;;;;;16.37;12.40;;;;;;;;;;4974265;28;20237;-81
2022/09/24 06:16:29;;;;;;;15.53;11.90;;;;;;;;;;4973782;28;20577;-81
2022/09/24 06:18:56;;;;;;;15.63;11.90;;;;;;;;;;4974067;28;20237;-82
2022/09/24 06:21:23;;;;;;;16.43;12.07;;;;;;;;;;4973560;28;20222;-82
2022/09/24 06:23:52;;;;;;;14.20;12.20;;;;;;;;;;4973065;28;20289;-82
2022/09/24 06:26:19;;;;;;;15.77;12.97;;;;;;;;;;4973690;28;20237;-81
2022/09/24 06:28:46;;;;;;;17.43;12.13;;;;;;;;;;4620674;28;10000376;-82
2022/09/24 06:31:14;;;;;;;16.17;11.53;;;;;;;;;;4972614;28;20694;-82
2022/09/24 06:33:41;;;;;;;15.80;11.70;;;;;;;;;;4972800;28;20241;-82
2022/09/24 06:36:09;;;;;;;14.17;11.53;;;;;;;;;;4973271;28;20228;-82
2022/09/24 06:38:38;;;;;;;14.57;11.73;;;;;;;;;;4972293;28;20206;-82
2022/09/24 06:41:06;;;;;;;14.13;11.50;;;;;;;;;;4972450;28;20784;-82
2022/09/24 06:43:35;;;;;;;13.47;11.00;;;;;;;;;;4968631;28;20944;-82
2022/09/24 06:46:03;;;;;;;13.60;10.93;;;;;;;;;;4953101;28;20261;-82
2022/09/24 06:48:31;;;;;;;13.50;10.60;;;;;;;;;;4962943;28;20436;-82
2022/09/24 06:50:58;;;;;;;12.40;10.37;;;;;;;;;;4962737;28;20203;-82
2022/09/24 06:53:25;;;;;;;15.90;11.20;;;;;;;;;;4952184;28;20258;-82
2022/09/24 06:55:53;;;;;;;12.50;10.30;;;;;;;;;;4958386;28;20620;-82
2022/09/24 06:58:22;;;;;;;12.93;10.50;;;;;;;;;;4972449;28;20575;-83
2022/09/24 07:00:53;;;;;;;15.20;10.80;;;;;;;;;;4968591;28;20610;-82
2022/09/24 07:03:21;;;;;;;14.43;10.30;;;;;;;;;;4953072;28;20210;-82
2022/09/24 07:05:49;;;;;;;13.87;11.00;;;;;;;;;;4952691;28;20209;-82
2022/09/24 07:08:16;;;;;;;12.27;10.20;;;;;;;;;;4956389;28;20227;-82
2022/09/24 07:10:44;;;;;;;11.97;9.80;;;;;;;;;;4956794;28;20352;-82
2022/09/24 07:13:12;;;;;;;13.10;10.37;;;;;;;;;;4956450;28;20298;-81
2022/09/24 07:15:40;;;;;;;10.40;9.00;;;;;;;;;;4955722;28;20289;-81
2022/09/24 07:18:08;;;;;;;13.80;9.07;;;;;;;;;;4960842;28;20285;-81
2022/09/24 07:20:35;;;;;;;11.93;8.63;;;;;;;;;;4975189;28;20284;-82
2022/09/24 07:23:03;;;;;;;12.10;8.83;;;;;;;;;;4975450;28;20297;-82
2022/09/24 07:25:30;;;;;;;10.77;8.67;;;;;;;;;;4976146;28;20237;-82
2022/09/24 07:28:01;;;;;;;11.77;8.47;;;;;;;;;;4970917;28;20245;-82
2022/09/24 07:30:29;;;;;;;12.40;8.53;;;;;;;;;;4960975;28;20757;-82
2022/09/24 07:32:58;;;;;;;11.73;8.73;;;;;;;;;;4969878;28;20234;-82
2022/09/24 07:35:25;;;;;;;11.13;8.23;;;;;;;;;;4975214;28;20211;-82
2022/09/24 07:37:59;;;;;;;10.43;8.10;;;;;;;;;;4975705;28;20241;-82
2022/09/24 07:40:26;;;;;;;10.97;8.17;;;;;;;;;;4972943;28;20281;-83
2022/09/24 07:42:54;;;;;;;10.10;7.83;;;;;;;;;;4968557;28;20306;-83
2022/09/24 07:45:22;;;;;;;9.93;8.27;;;;;;;;;;4974755;28;20293;-82
2022/09/24 07:47:49;;;;;;;11.43;8.10;;;;;;;;;;4974426;28;20636;-82
2022/09/24 07:50:18;;;;;;;9.20;7.10;;;;;;;;;;4974851;28;20282;-83
2022/09/24 07:52:50;;;;;;;8.40;5.77;;;;;;;;;;4974352;28;20635;-83
2022/09/24 07:55:17;;;;;;;7.50;5.97;;;;;;;;;;4972842;28;20306;-83
2022/09/24 07:57:47;;;;;;;7.73;5.83;;;;;;;;;;4974640;28;20241;-83
2022/09/24 08:00:15;;;;;;;6.90;5.90;;;;;;;;;;4976553;28;20222;-83
2022/09/24 08:02:42;;;;;;;8.27;6.23;;;;;;;;;;4968507;28;20238;-83
2022/09/24 08:05:10;;;;;;;7.90;5.83;;;;;;;;;;4964299;28;20749;-83
2022/09/24 08:07:39;;;;;;;7.80;6.50;;;;;;;;;;4975523;28;20302;-83
2022/09/24 08:10:06;;;;;;;8.63;7.07;;;;;;;;;;4975315;28;20281;-82
2022/09/24 08:12:33;;;;;;;7.67;6.77;;;;;;;;;;4975644;28;20207;-83
2022/09/24 08:15:01;;;;;;;10.10;6.60;;;;;;;;;;4971533;28;20261;-83
2022/09/24 08:17:28;;;;;;;8.50;6.97;;;;;;;;;;4955462;28;20267;-82
2022/09/24 08:19:55;;;;;;;9.87;7.00;;;;;;;;;;4972455;28;20263;-82
2022/09/24 08:22:23;;;;;;;9.10;6.67;;;;;;;;;;4972556;28;20213;-82
2022/09/24 08:24:52;;;;;;;9.70;6.67;;;;;;;;;;4968802;28;20202;-82
2022/09/24 08:27:19;;;;;;;8.40;6.53;;;;;;;;;;4973935;28;20280;-81
2022/09/24 08:29:47;;;;;;;7.60;5.97;;;;;;;;;;4974332;28;20287;-81
2022/09/24 08:32:14;;;;;;;7.50;6.30;;;;;;;;;;4958143;28;20275;-82
2022/09/24 08:34:41;;;;;;;8.20;6.17;;;;;;;;;;4967399;28;20230;-82
2022/09/24 08:37:08;;;;;;;10.70;5.80;;;;;;;;;;4974739;28;20290;-82
2022/09/24 08:39:36;;;;;;;8.63;6.13;;;;;;;;;;4975012;28;20289;-83
2022/09/24 08:42:06;;;;;;;8.13;6.10;;;;;;;;;;4974998;28;20602;-83
2022/09/24 08:47:31;;;;;;;9.23;6.27;;;;;;;;;;4972593;28;20209;-83
2022/09/24 08:50:02;;;;;;;9.30;5.87;;;;;;;;;;4986386;28;20586;-83
2022/09/24 08:52:32;;;;;;;8.73;5.60;;;;;;;;;;4974786;28;20198;-83
2022/09/24 08:55:02;;;;;;;8.17;5.67;;;;;;;;;;4972229;28;20230;-83
2022/09/24 08:57:34;;;;;;;7.07;5.40;;;;;;;;;;4975330;28;20206;-83
2022/09/24 09:00:01;;;;;;;7.93;4.90;;;;;;;;;;4974877;28;20248;-83
2022/09/24 09:02:34;;;;;;;7.23;5.03;;;;;;;;;;4971891;28;20257;-83
2022/09/24 09:05:05;;;;;;;7.97;4.83;;;;;;;;;;4980340;28;20276;-83
2022/09/24 09:07:35;;;;;;;7.07;4.80;;;;;;;;;;4972720;28;20225;-83
2022/09/24 09:10:04;;;;;;;6.33;4.43;;;;;;;;;;4975104;28;20262;-83
2022/09/24 09:12:36;;;;;;;7.53;4.13;;;;;;;;;;4971277;28;20201;-83
2022/09/24 09:15:05;;;;;;;5.43;4.20;;;;;;;;;;4963313;28;20298;-83
2022/09/24 09:17:41;;;;;;;6.87;4.10;;;;;;;;;;4960926;28;20283;-83
2022/09/24 09:20:11;;;;;;;6.27;3.67;;;;;;;;;;4955348;28;20281;-82
2022/09/24 09:22:40;;;;;;;6.37;3.80;;;;;;;;;;4971569;28;20195;-83
2022/09/24 09:25:15;;;;;;;6.57;3.47;;;;;;;;;;4972789;28;20206;-82
2022/09/24 09:27:43;;;;;;;7.67;3.07;;;;;;;;;;4973257;28;20224;-82
2022/09/24 09:30:14;;;;;;;6.07;2.70;;;;;;;;;;4968103;28;20257;-83
2022/09/24 09:32:54;;;;;;;7.47;2.30;;;;;;;;;;4972742;28;20209;-81
2022/09/24 09:35:24;;;;;;;5.67;2.63;;;;;;;;;;4954823;28;20742;-81
2022/09/24 09:37:57;;;;;;;6.33;2.50;;;;;;;;;;4961937;28;20771;-81
2022/09/24 09:40:30;;;;;;;5.53;2.43;;;;;;;;;;4962952;28;20230;-82
2022/09/24 09:43:02;;;;;;;4.80;2.10;;;;;;;;;;4957776;28;20709;-82
2022/09/24 09:45:32;;;;;;;5.40;2.20;;;;;;;;;;4967891;28;20657;-81
2022/09/24 09:48:00;;;;;;;5.50;2.00;;;;;;;;;;4965291;28;20642;-82
2022/09/24 09:50:28;;;;;;;3.67;2.10;;;;;;;;;;4964911;28;20210;-81
2022/09/24 09:52:56;;;;;;;7.13;2.30;;;;;;;;;;4965586;28;20311;-82
2022/09/24 09:55:25;;;;;;;6.07;2.10;;;;;;;;;;4970853;28;20290;-83
2022/09/24 09:57:53;;;;;;;5.63;2.10;;;;;;;;;;4965121;28;21043;-85
2022/09/24 10:00:33;;;;;;;4.23;1.80;;;;;;;;;;4970300;28;20749;-83
2022/09/24 10:03:01;;;;;;;4.27;2.10;;;;;;;;;;4966000;28;20198;-83
2022/09/24 10:05:28;;;;;;;8.30;2.40;;;;;;;;;;4965126;28;20199;-83
2022/09/24 10:07:56;;;;;;;6.30;1.90;;;;;;;;;;4965557;28;20256;-83
2022/09/24 10:10:25;;;;;;;4.57;2.08;;;;;;;;;;4965695;28;20737;-85
2022/09/24 10:12:53;;;;;;;5.32;1.90;;;;;;;;;;4962079;28;20248;-85
2022/09/24 10:15:23;;;;;;;5.15;1.80;;;;;;;;;;4963891;28;20202;-84
2022/09/24 10:17:52;;;;;;;3.95;1.98;;;;;;;;;;4964700;28;20206;-84
2022/09/24 10:20:22;;;;;;;5.13;1.80;;;;;;;;;;4966535;28;20305;-84
2022/09/24 10:22:52;;;;;;;7.10;1.70;;;;;;;;;;4977555;28;20230;-85
2022/09/24 10:25:23;;;;;;;6.72;1.83;;;;;;;;;;4967298;28;20226;-84
2022/09/24 10:27:52;;;;;;;7.03;1.80;;;;;;;;;;4964167;28;20679;-83
2022/09/24 10:30:33;;;;;;;5.68;1.60;;;;;;;;;;4970276;28;20244;-84
2022/09/24 10:33:02;;;;;;;5.38;1.50;;;;;;;;;;4963864;28;20205;-84
2022/09/24 10:35:33;;;;;;;5.70;1.70;;;;;;;;;;4970862;28;20645;-84
2022/09/24 10:38:01;;;;;;;6.47;2.15;;;;;;;;;;4973356;28;20686;-84
2022/09/24 10:40:29;;;;;;;5.70;1.58;;;;;;;;;;4972983;28;20234;-84
2022/09/24 10:42:58;;;;;;;6.63;1.50;;;;;;;;;;4977404;28;20272;-86
2022/09/24 10:45:29;;;;;;;4.07;1.52;;;;;;;;;;4960171;28;20203;-84
2022/09/24 10:48:02;;;;;;;3.53;1.40;;;;;;;;;;4968777;28;20206;-84
2022/09/24 10:50:34;;;;;;;7.30;1.67;;;;;;;;;;4976743;28;20218;-84
2022/09/24 10:53:03;;;;;;;5.80;1.42;;;;;;;;;;4976831;28;20237;-84
2022/09/24 10:55:46;;;;;;;3.35;1.30;;;;;;;;;;4975797;28;20332;-84
2022/09/24 10:58:24;;;;;;;4.35;1.23;;;;;;;;;;4974681;28;20253;-84
2022/09/24 11:00:56;;;;;;;3.88;1.30;;;;;;;;;;4967060;28;20671;-84
2022/09/24 11:03:38;;;;;;;5.18;1.40;;;;;;;;;;4966812;28;20211;-84
2022/09/24 11:06:17;;;;;;;5.13;1.30;;;;;;;;;;4967281;28;20253;-84
2022/09/24 11:08:52;;;;;;;3.45;1.30;;;;;;;;;;4977197;28;20614;-83
2022/09/24 11:11:23;;;;;;;2.78;1.20;;;;;;;;;;4966360;28;20285;-84
2022/09/24 11:13:58;;;;;;;5.97;1.55;;;;;;;;;;4969940;28;20239;-83
2022/09/24 11:16:32;;;;;;;5.97;1.40;;;;;;;;;;4975430;28;20631;-83
2022/09/24 11:19:02;;;;;;;3.92;1.40;;;;;;;;;;4964357;28;20285;-83
2022/09/24 11:21:35;;;;;;;3.30;1.48;;;;;;;;;;4977560;28;20771;-83
2022/09/24 11:24:07;;;;;;;2.80;1.13;;;;;;;;;;4972802;28;20293;-83
2022/09/24 11:26:39;;;;;;;5.07;1.40;;;;;;;;;;4967140;28;20285;-83
2022/09/24 11:29:21;;;;;;;4.43;1.30;;;;;;;;;;4971944;28;20213;-84
2022/09/24 11:31:55;;;;;;;2.67;1.10;;;;;;;;;;4964346;28;20274;-84
2022/09/24 11:34:30;;;;;;;3.63;1.20;;;;;;;;;;4967636;28;20249;-81
2022/09/24 11:40:07;;;;;;;3.95;1.20;;;;;;;;;;4775221;27;10001897;-84
2022/09/24 11:42:37;;;;;;;3.20;1.30;;;;;;;;;;5129583;27;20231;-82
2022/09/24 11:45:28;;;;;;;4.38;1.40;;;;;;;;;;5130834;28;20236;-81
2022/09/24 11:48:05;;;;;;;4.20;1.40;;;;;;;;;;5131513;28;20197;-81
2022/09/24 11:50:38;;;;;;;2.17;1.10;;;;;;;;;;5129766;28;20232;-81
2022/09/24 11:53:08;;;;;;;4.88;1.27;;;;;;;;;;5131073;28;20223;-82
2022/09/24 11:55:37;;;;;;;2.67;1.30;;;;;;;;;;5130237;28;20220;-82
2022/09/24 11:58:13;;;;;;;5.47;1.10;;;;;;;;;;5130545;27;20256;-82
2022/09/24 12:00:42;;;;;;;4.53;1.45;;;;;;;;;;5133395;27;20684;-82
2022/09/24 12:03:14;;;;;;;3.70;1.17;;;;;;;;;;5151483;27;20279;-82
2022/09/24 12:05:45;;;;;;;3.05;1.13;;;;;;;;;;5151842;27;20287;-82
2022/09/24 12:08:14;;;;;;;6.10;1.45;;;;;;;;;;5137964;27;20303;-82
2022/09/24 12:10:44;;;;;;;3.35;1.10;;;;;;;;;;5132663;28;20221;-82
2022/09/24 12:13:18;;;;;;;5.32;1.30;;;;;;;;;;5131792;28;20233;-82
2022/09/24 12:15:48;;;;;;;3.83;1.20;;;;;;;;;;5125050;28;20642;-82
2022/09/24 12:18:18;;;;;;;4.28;1.25;;;;;;;;;;5089908;28;20309;-82
2022/09/24 12:20:48;;;;;;;3.58;1.20;;;;;;;;;;5101988;28;20285;-82
2022/09/24 12:23:17;;;;;;;3.58;1.50;;;;;;;;;;5109704;28;20202;-82
2022/09/24 12:25:45;;;;;;;5.13;1.60;;;;;;;;;;5113235;28;20398;-82
2022/09/24 12:32:52;;;;;;;3.35;1.63;;;;;;;;;;5109896;28;20285;-82
2022/09/24 12:33:53;;;;;;;3.05;1.33;;;;;;;;;;5109825;28;20659;-82
2022/09/24 12:36:24;;;;;;;4.00;1.10;;;;;;;;;;5093808;28;20281;-82
2022/09/24 12:38:52;;;;;;;4.47;1.02;;;;;;;;;;5089863;28;20241;-82
2022/09/24 12:41:22;;;;;;;2.90;1.10;;;;;;;;;;5091015;28;20289;-82
2022/09/24 12:43:53;;;;;;;3.63;1.33;;;;;;;;;;5131226;28;20235;-82
2022/09/24 12:46:25;;;;;;;2.10;1.00;;;;;;;;;;5101018;28;20237;-82
2022/09/24 12:48:53;;;;;;;5.10;1.30;;;;;;;;;;5089580;28;20230;-82
2022/09/24 12:51:22;;;;;;;3.25;1.48;;;;;;;;;;5074829;28;20678;-82
2022/09/24 12:53:57;;;;;;;5.30;1.63;;;;;;;;;;5075550;28;20207;-81
2022/09/24 12:56:25;;;;;;;4.65;1.63;;;;;;;;;;5075645;28;20234;-81
2022/09/24 12:58:54;;;;;;;3.42;1.17;;;;;;;;;;5095532;28;20232;-81
2022/09/24 13:01:29;;;;;;;3.28;1.10;;;;;;;;;;5115941;28;20764;-81
2022/09/24 13:04:03;;;;;;;7.82;1.48;;;;;;;;;;5116398;28;20304;-82
2022/09/24 13:06:32;;;;;;;3.35;1.27;;;;;;;;;;5115459;28;20205;-82
2022/09/24 13:08:59;;;;;;;6.95;1.40;;;;;;;;;;5115435;28;20668;-82
2022/09/24 13:11:29;;;;;;;3.42;1.20;;;;;;;;;;5107825;28;20262;-82
2022/09/24 13:14:28;;;;;;;4.25;1.30;;;;;;;;;;5100257;28;20204;-82
2022/09/24 13:16:56;;;;;;;2.10;1.00;;;;;;;;;;5079231;28;20285;-82
2022/09/24 13:19:30;;;;;;;3.33;1.30;;;;;;;;;;5076980;28;20312;-81
2022/09/24 13:21:58;;;;;;;4.88;1.10;;;;;;;;;;5110871;28;20204;-82
2022/09/24 13:24:27;;;;;;;2.85;1.10;;;;;;;;;;5097667;28;20258;-82
2022/09/24 13:26:54;;;;;;;2.10;1.30;;;;;;;;;;5115488;28;20760;-82
2022/09/24 13:29:38;;;;;;;2.15;1.17;;;;;;;;;;5115418;28;20190;-83
2022/09/24 13:32:05;;;;;;;2.40;1.17;;;;;;;;;;5115693;28;20198;-82
2022/09/24 13:34:33;;;;;;;2.92;1.10;;;;;;;;;;5094689;28;20634;-82
2022/09/24 13:37:03;;;;;;;2.88;0.98;;;;;;;;;;5094766;28;20202;-82
2022/09/24 13:39:34;;;;;;;2.47;1.00;;;;;;;;;;5094064;28;20325;-82
2022/09/24 13:42:04;;;;;;;2.60;1.00;;;;;;;;;;5095065;28;20205;-82
2022/09/24 13:44:35;;;;;;;2.95;1.10;;;;;;;;;;5073964;28;20230;-82
2022/09/24 13:47:05;;;;;;;3.72;1.30;;;;;;;;;;5106903;28;20631;-83
2022/09/24 13:49:33;;;;;;;2.97;1.20;;;;;;;;;;5094614;28;20666;-83
2022/09/24 13:52:09;;;;;;;1.95;1.08;;;;;;;;;;5094242;28;20199;-82
2022/09/24 13:54:40;;;;;;;4.22;1.15;;;;;;;;;;5094686;28;20229;-82
2022/09/24 13:57:11;;;;;;;4.35;1.17;;;;;;;;;;5094306;28;20286;-82
2022/09/24 13:59:40;;;;;;;3.67;1.40;;;;;;;;;;5094306;28;20308;-82
2022/09/24 14:02:25;;;;;;;3.65;1.65;;;;;;;;;;5093460;28;20289;-83
2022/09/24 14:04:57;;;;;;;2.55;1.30;;;;;;;;;;5091690;28;20609;-82
2022/09/24 14:07:27;;;;;;;3.05;1.42;;;;;;;;;;5079572;28;20717;-83
2022/09/24 14:10:06;;;;;;;4.47;1.45;;;;;;;;;;5094362;28;20230;-84
2022/09/24 14:12:33;;;;;;;3.47;1.33;;;;;;;;;;5093369;28;20628;-84
2022/09/24 14:15:05;;;;;;;3.65;1.45;;;;;;;;;;5084586;28;20876;-82
2022/09/24 14:17:32;;;;;;;2.70;1.50;;;;;;;;;;5088908;28;20227;-82
2022/09/24 14:19:59;;;;;;;3.92;1.40;;;;;;;;;;5084120;28;20313;-84
2022/09/24 14:22:30;;;;;;;3.13;1.33;;;;;;;;;;5082826;28;20195;-84
2022/09/24 14:24:59;;;;;;;2.55;1.40;;;;;;;;;;5088588;28;21179;-83
2022/09/24 14:27:27;;;;;;;3.47;1.33;;;;;;;;;;5080006;28;20256;-83
2022/09/24 14:29:57;;;;;;;2.63;1.40;;;;;;;;;;5083793;28;20565;-82
2022/09/24 14:32:28;;;;;;;4.05;1.23;;;;;;;;;;5089783;28;20272;-84
2022/09/24 14:34:56;;;;;;;3.60;1.60;;;;;;;;;;5090815;28;20256;-82
2022/09/24 14:37:25;;;;;;;4.55;1.50;;;;;;;;;;5090185;28;20281;-80
2022/09/24 14:39:58;;;;;;;4.00;1.40;;;;;;;;;;5090710;28;20253;-83
2022/09/24 14:42:28;;;;;;;3.75;1.70;;;;;;;;;;5091438;28;20213;-81
2022/09/24 14:44:55;;;;;;;2.40;1.40;;;;;;;;;;5092701;28;20236;-81
2022/09/24 14:47:25;;;;;;;4.78;1.80;;;;;;;;;;5079714;28;20263;-81
2022/09/24 14:49:54;;;;;;;3.95;1.73;;;;;;;;;;5079974;28;20198;-82
2022/09/24 14:52:26;;;;;;;5.10;1.80;;;;;;;;;;5083937;28;20205;-81
2022/09/24 14:55:01;;;;;;;3.20;1.52;;;;;;;;;;5086195;28;20672;-82